Weather at Beira Airport

Public forecast

Using degrees Celsius for public forecast. Weather courtesy of forecast.io.

Current aviation weather report (METAR) for Beira Airport

2024/05/26 14:00 (retrieved 26 minutes ago)

FQBR 261400Z 15009KT 9999 FEW020 26/22 Q1018

Aviation forecast (TAF) for Beira Airport

2024/05/26 12:00 (retrieved 2 hours ago)

TAF FQBR 261000Z 2612/2718 12010KT 9999 FEW020 TX26/2613Z TN16/2702Z BECMG 2618/2620 08006KT BECMG 2700/2702 27007KT PROB30 TEMPO 2700/2706 3000 BR SCT005 BECMG 2712/2714 16010KT BECMG 2716/2718 14007KT